Franconia, Virginia
Current Conditions -  °F | °C
As of 3:03 AM on Thursday 27 Nov 2014 (Local Time) from KDAA Reporting Station
Haze Haze  
Wind Chill: 34°   Ceiling: 7500
Heat Index: 34°   Visibility: 4mi
Dew Point: 32°   Wind: 0mph
Humidity: 93%   Direction: NA
Pressure: 30.03"   Gusts: NA
Location:  38.78°N, 77.15°W
Report Text: KDAA 270803Z AUTO 00000KT 4SM R32/4500FT BR SCT036 OVC075 01/00 A3003 RMK AO2
Loading
Personal Weather Stations






























Interactive Weather Map New forecast layout! Learn more

10-Day Weather Forecast

Advertisements
Track Severe Weather on mobile